sensor_id;sensor_type;location;lat;lon;timestamp;P1;durP1;ratioP1;P2;durP2;ratioP2
13985;SDS011;7067;51.832;8.296;2022-08-03T00:00:39;4.72;;;4.43;;
13985;SDS011;7067;51.832;8.296;2022-08-03T00:03:05;9.00;;;5.32;;
13985;SDS011;7067;51.832;8.296;2022-08-03T00:05:30;4.50;;;4.10;;
13985;SDS011;7067;51.832;8.296;2022-08-03T00:07:57;4.80;;;4.22;;
13985;SDS011;7067;51.832;8.296;2022-08-03T00:10:23;5.30;;;4.15;;
13985;SDS011;7067;51.832;8.296;2022-08-03T00:12:49;5.10;;;4.40;;
13985;SDS011;7067;51.832;8.296;2022-08-03T00:15:15;5.72;;;5.20;;
13985;SDS011;7067;51.832;8.296;2022-08-03T00:17:40;4.70;;;4.40;;
13985;SDS011;7067;51.832;8.296;2022-08-03T00:20:06;4.88;;;4.60;;
13985;SDS011;7067;51.832;8.296;2022-08-03T00:22:33;5.90;;;5.30;;
13985;SDS011;7067;51.832;8.296;2022-08-03T00:24:59;5.55;;;5.05;;
13985;SDS011;7067;51.832;8.296;2022-08-03T00:27:24;5.85;;;5.32;;
13985;SDS011;7067;51.832;8.296;2022-08-03T00:29:49;6.10;;;5.68;;
13985;SDS011;7067;51.832;8.296;2022-08-03T00:32:15;6.38;;;5.57;;
13985;SDS011;7067;51.832;8.296;2022-08-03T00:34:40;5.90;;;5.50;;
13985;SDS011;7067;51.832;8.296;2022-08-03T00:37:05;6.55;;;5.47;;
13985;SDS011;7067;51.832;8.296;2022-08-03T00:39:31;5.32;;;4.97;;
13985;SDS011;7067;51.832;8.296;2022-08-03T00:41:56;7.93;;;5.63;;
13985;SDS011;7067;51.832;8.296;2022-08-03T00:44:21;6.55;;;5.97;;
13985;SDS011;7067;51.832;8.296;2022-08-03T00:46:47;6.68;;;6.18;;
13985;SDS011;7067;51.832;8.296;2022-08-03T00:49:12;6.70;;;6.07;;
13985;SDS011;7067;51.832;8.296;2022-08-03T00:51:38;7.22;;;6.72;;
13985;SDS011;7067;51.832;8.296;2022-08-03T00:54:03;7.18;;;6.47;;
13985;SDS011;7067;51.832;8.296;2022-08-03T00:56:29;7.55;;;6.22;;
13985;SDS011;7067;51.832;8.296;2022-08-03T00:58:54;6.43;;;5.93;;
13985;SDS011;7067;51.832;8.296;2022-08-03T01:01:21;6.75;;;6.15;;
13985;SDS011;7067;51.832;8.296;2022-08-03T01:03:47;7.90;;;6.88;;
13985;SDS011;7067;51.832;8.296;2022-08-03T01:13:49;7.88;;;7.35;;
13985;SDS011;7067;51.832;8.296;2022-08-03T01:16:27;7.32;;;6.70;;
13985;SDS011;7067;51.832;8.296;2022-08-03T01:19:07;8.18;;;7.45;;
13985;SDS011;7067;51.832;8.296;2022-08-03T01:24:55;8.60;;;7.90;;
13985;SDS011;7067;51.832;8.296;2022-08-03T01:30:18;8.38;;;7.63;;
13985;SDS011;7067;51.832;8.296;2022-08-03T01:35:35;9.27;;;8.50;;
13985;SDS011;7067;51.832;8.296;2022-08-03T01:38:05;9.68;;;7.95;;
13985;SDS011;7067;51.832;8.296;2022-08-03T01:40:34;8.73;;;7.97;;
13985;SDS011;7067;51.832;8.296;2022-08-03T01:43:01;8.88;;;8.18;;
13985;SDS011;7067;51.832;8.296;2022-08-03T01:45:27;8.52;;;7.78;;
13985;SDS011;7067;51.832;8.296;2022-08-03T01:47:53;8.98;;;7.95;;
13985;SDS011;7067;51.832;8.296;2022-08-03T01:50:22;8.55;;;7.95;;
13985;SDS011;7067;51.832;8.296;2022-08-03T01:52:49;9.50;;;8.52;;
13985;SDS011;7067;51.832;8.296;2022-08-03T01:55:16;9.48;;;8.77;;
13985;SDS011;7067;51.832;8.296;2022-08-03T01:57:41;8.15;;;7.45;;
13985;SDS011;7067;51.832;8.296;2022-08-03T02:00:08;10.05;;;7.88;;
13985;SDS011;7067;51.832;8.296;2022-08-03T02:02:35;9.98;;;8.57;;
13985;SDS011;7067;51.832;8.296;2022-08-03T02:05:02;10.50;;;8.32;;
13985;SDS011;7067;51.832;8.296;2022-08-03T02:07:29;8.45;;;7.60;;
13985;SDS011;7067;51.832;8.296;2022-08-03T02:09:55;8.73;;;7.90;;
13985;SDS011;7067;51.832;8.296;2022-08-03T02:12:22;9.80;;;8.85;;
13985;SDS011;7067;51.832;8.296;2022-08-03T02:14:49;8.73;;;8.02;;
13985;SDS011;7067;51.832;8.296;2022-08-03T02:17:14;8.98;;;8.25;;
13985;SDS011;7067;51.832;8.296;2022-08-03T02:19:41;9.00;;;8.40;;
13985;SDS011;7067;51.832;8.296;2022-08-03T02:22:07;8.85;;;8.20;;
13985;SDS011;7067;51.832;8.296;2022-08-03T02:24:34;8.80;;;7.97;;
13985;SDS011;7067;51.832;8.296;2022-08-03T02:26:59;8.25;;;7.57;;
13985;SDS011;7067;51.832;8.296;2022-08-03T02:29:26;8.35;;;7.85;;
13985;SDS011;7067;51.832;8.296;2022-08-03T02:31:54;10.07;;;8.57;;
13985;SDS011;7067;51.832;8.296;2022-08-03T02:34:22;8.20;;;7.60;;
13985;SDS011;7067;51.832;8.296;2022-08-03T02:36:51;9.52;;;8.85;;
13985;SDS011;7067;51.832;8.296;2022-08-03T02:39:18;8.55;;;7.65;;
13985;SDS011;7067;51.832;8.296;2022-08-03T02:41:49;8.07;;;7.30;;
13985;SDS011;7067;51.832;8.296;2022-08-03T02:44:16;8.20;;;7.70;;
13985;SDS011;7067;51.832;8.296;2022-08-03T02:46:45;7.82;;;7.05;;
13985;SDS011;7067;51.832;8.296;2022-08-03T02:49:12;11.18;;;8.02;;
13985;SDS011;7067;51.832;8.296;2022-08-03T02:51:38;8.60;;;7.85;;
13985;SDS011;7067;51.832;8.296;2022-08-03T02:54:04;8.25;;;7.57;;
13985;SDS011;7067;51.832;8.296;2022-08-03T02:56:30;8.68;;;7.88;;
13985;SDS011;7067;51.832;8.296;2022-08-03T02:58:56;8.65;;;8.07;;
13985;SDS011;7067;51.832;8.296;2022-08-03T03:01:23;11.60;;;8.18;;
13985;SDS011;7067;51.832;8.296;2022-08-03T03:03:50;9.25;;;8.38;;
13985;SDS011;7067;51.832;8.296;2022-08-03T03:06:16;9.82;;;8.93;;
13985;SDS011;7067;51.832;8.296;2022-08-03T03:08:43;9.57;;;8.52;;
13985;SDS011;7067;51.832;8.296;2022-08-03T03:11:10;9.65;;;8.73;;
13985;SDS011;7067;51.832;8.296;2022-08-03T03:13:35;10.10;;;9.10;;
13985;SDS011;7067;51.832;8.296;2022-08-03T03:16:02;10.60;;;8.55;;
13985;SDS011;7067;51.832;8.296;2022-08-03T03:18:31;9.53;;;8.63;;
13985;SDS011;7067;51.832;8.296;2022-08-03T03:20:57;10.15;;;9.13;;
13985;SDS011;7067;51.832;8.296;2022-08-03T03:23:23;11.32;;;9.52;;
13985;SDS011;7067;51.832;8.296;2022-08-03T03:25:49;12.77;;;9.43;;
13985;SDS011;7067;51.832;8.296;2022-08-03T03:28:15;9.35;;;8.65;;
13985;SDS011;7067;51.832;8.296;2022-08-03T03:30:41;11.02;;;8.93;;
13985;SDS011;7067;51.832;8.296;2022-08-03T03:33:06;10.98;;;10.00;;
13985;SDS011;7067;51.832;8.296;2022-08-03T03:35:32;9.88;;;8.75;;
13985;SDS011;7067;51.832;8.296;2022-08-03T03:37:57;10.43;;;8.32;;
13985;SDS011;7067;51.832;8.296;2022-08-03T03:40:23;10.13;;;9.10;;
13985;SDS011;7067;51.832;8.296;2022-08-03T03:42:49;10.73;;;9.65;;
13985;SDS011;7067;51.832;8.296;2022-08-03T03:45:14;10.95;;;9.93;;
13985;SDS011;7067;51.832;8.296;2022-08-03T03:47:40;9.40;;;8.60;;
13985;SDS011;7067;51.832;8.296;2022-08-03T03:50:05;9.85;;;9.05;;
13985;SDS011;7067;51.832;8.296;2022-08-03T03:52:32;9.40;;;8.43;;
13985;SDS011;7067;51.832;8.296;2022-08-03T03:54:57;9.75;;;8.95;;
13985;SDS011;7067;51.832;8.296;2022-08-03T03:57:23;12.10;;;9.38;;
13985;SDS011;7067;51.832;8.296;2022-08-03T03:59:49;10.23;;;9.43;;
13985;SDS011;7067;51.832;8.296;2022-08-03T04:02:14;9.65;;;8.45;;
13985;SDS011;7067;51.832;8.296;2022-08-03T04:04:39;9.27;;;8.52;;
13985;SDS011;7067;51.832;8.296;2022-08-03T04:07:24;10.07;;;9.27;;
13985;SDS011;7067;51.832;8.296;2022-08-03T04:10:15;10.43;;;9.32;;
13985;SDS011;7067;51.832;8.296;2022-08-03T04:13:04;11.07;;;9.85;;
13985;SDS011;7067;51.832;8.296;2022-08-03T04:15:32;10.05;;;9.07;;
13985;SDS011;7067;51.832;8.296;2022-08-03T04:17:58;9.07;;;8.18;;
13985;SDS011;7067;51.832;8.296;2022-08-03T04:20:25;9.55;;;8.85;;
13985;SDS011;7067;51.832;8.296;2022-08-03T04:22:52;10.13;;;9.25;;
13985;SDS011;7067;51.832;8.296;2022-08-03T04:25:18;12.35;;;8.35;;
13985;SDS011;7067;51.832;8.296;2022-08-03T04:27:45;10.30;;;9.40;;
13985;SDS011;7067;51.832;8.296;2022-08-03T04:30:12;10.68;;;9.80;;
13985;SDS011;7067;51.832;8.296;2022-08-03T04:32:38;10.23;;;9.43;;
13985;SDS011;7067;51.832;8.296;2022-08-03T04:35:04;10.05;;;9.07;;
13985;SDS011;7067;51.832;8.296;2022-08-03T04:39:58;10.13;;;9.30;;
13985;SDS011;7067;51.832;8.296;2022-08-03T04:42:26;9.63;;;8.75;;
13985;SDS011;7067;51.832;8.296;2022-08-03T04:44:51;11.25;;;9.73;;
13985;SDS011;7067;51.832;8.296;2022-08-03T04:47:17;10.43;;;9.52;;
13985;SDS011;7067;51.832;8.296;2022-08-03T04:49:43;8.82;;;8.13;;
13985;SDS011;7067;51.832;8.296;2022-08-03T04:52:08;12.63;;;9.23;;
13985;SDS011;7067;51.832;8.296;2022-08-03T04:54:43;10.27;;;9.20;;
13985;SDS011;7067;51.832;8.296;2022-08-03T04:57:10;9.50;;;8.73;;
13985;SDS011;7067;51.832;8.296;2022-08-03T04:59:35;10.48;;;9.55;;
13985;SDS011;7067;51.832;8.296;2022-08-03T05:02:01;9.10;;;8.20;;
13985;SDS011;7067;51.832;8.296;2022-08-03T05:04:26;10.20;;;8.20;;
13985;SDS011;7067;51.832;8.296;2022-08-03T05:06:52;8.90;;;8.20;;
13985;SDS011;7067;51.832;8.296;2022-08-03T05:09:17;9.30;;;8.45;;
13985;SDS011;7067;51.832;8.296;2022-08-03T05:11:42;9.18;;;8.48;;
13985;SDS011;7067;51.832;8.296;2022-08-03T05:14:08;8.65;;;8.05;;
13985;SDS011;7067;51.832;8.296;2022-08-03T05:16:34;8.70;;;7.30;;
13985;SDS011;7067;51.832;8.296;2022-08-03T05:18:59;11.02;;;8.30;;
13985;SDS011;7067;51.832;8.296;2022-08-03T05:21:24;8.38;;;7.88;;
13985;SDS011;7067;51.832;8.296;2022-08-03T05:23:50;8.82;;;7.97;;
13985;SDS011;7067;51.832;8.296;2022-08-03T05:26:15;8.55;;;7.78;;
13985;SDS011;7067;51.832;8.296;2022-08-03T05:28:40;8.32;;;7.60;;
13985;SDS011;7067;51.832;8.296;2022-08-03T05:31:06;8.38;;;7.80;;
13985;SDS011;7067;51.832;8.296;2022-08-03T05:33:31;13.15;;;7.47;;
13985;SDS011;7067;51.832;8.296;2022-08-03T05:35:56;7.68;;;6.75;;
13985;SDS011;7067;51.832;8.296;2022-08-03T05:38:23;7.72;;;7.00;;
13985;SDS011;7067;51.832;8.296;2022-08-03T05:40:49;8.23;;;7.53;;
13985;SDS011;7067;51.832;8.296;2022-08-03T05:43:14;8.40;;;7.65;;
13985;SDS011;7067;51.832;8.296;2022-08-03T05:45:40;8.18;;;7.20;;
13985;SDS011;7067;51.832;8.296;2022-08-03T05:48:06;7.65;;;6.75;;
13985;SDS011;7067;51.832;8.296;2022-08-03T05:50:31;7.68;;;7.05;;
13985;SDS011;7067;51.832;8.296;2022-08-03T05:52:56;8.75;;;7.13;;
13985;SDS011;7067;51.832;8.296;2022-08-03T05:55:22;7.95;;;7.03;;
13985;SDS011;7067;51.832;8.296;2022-08-03T05:57:47;8.60;;;6.90;;
13985;SDS011;7067;51.832;8.296;2022-08-03T06:00:13;6.97;;;6.28;;
13985;SDS011;7067;51.832;8.296;2022-08-03T06:02:39;6.43;;;6.00;;
13985;SDS011;7067;51.832;8.296;2022-08-03T06:05:05;7.53;;;5.63;;
13985;SDS011;7067;51.832;8.296;2022-08-03T06:07:31;6.80;;;6.30;;
13985;SDS011;7067;51.832;8.296;2022-08-03T06:09:57;8.50;;;6.00;;
13985;SDS011;7067;51.832;8.296;2022-08-03T06:12:22;7.03;;;6.40;;
13985;SDS011;7067;51.832;8.296;2022-08-03T06:14:47;12.52;;;6.45;;
13985;SDS011;7067;51.832;8.296;2022-08-03T06:17:13;6.57;;;6.07;;
13985;SDS011;7067;51.832;8.296;2022-08-03T06:19:38;6.82;;;6.22;;
13985;SDS011;7067;51.832;8.296;2022-08-03T06:22:04;6.88;;;6.38;;
13985;SDS011;7067;51.832;8.296;2022-08-03T06:24:29;6.75;;;5.75;;
13985;SDS011;7067;51.832;8.296;2022-08-03T06:26:55;5.80;;;5.32;;
13985;SDS011;7067;51.832;8.296;2022-08-03T06:29:20;6.22;;;5.32;;
13985;SDS011;7067;51.832;8.296;2022-08-03T06:31:45;8.70;;;6.25;;
13985;SDS011;7067;51.832;8.296;2022-08-03T06:34:11;9.77;;;6.00;;
13985;SDS011;7067;51.832;8.296;2022-08-03T06:36:36;8.27;;;6.28;;
13985;SDS011;7067;51.832;8.296;2022-08-03T06:39:02;6.53;;;6.03;;
13985;SDS011;7067;51.832;8.296;2022-08-03T06:41:28;11.35;;;5.60;;
13985;SDS011;7067;51.832;8.296;2022-08-03T06:43:53;6.63;;;6.03;;
13985;SDS011;7067;51.832;8.296;2022-08-03T06:46:19;7.72;;;5.32;;
13985;SDS011;7067;51.832;8.296;2022-08-03T06:48:44;6.22;;;5.70;;
13985;SDS011;7067;51.832;8.296;2022-08-03T06:51:10;6.93;;;4.60;;
13985;SDS011;7067;51.832;8.296;2022-08-03T06:53:36;6.82;;;4.72;;
13985;SDS011;7067;51.832;8.296;2022-08-03T06:56:03;6.20;;;4.90;;
13985;SDS011;7067;51.832;8.296;2022-08-03T06:58:28;6.47;;;4.65;;
13985;SDS011;7067;51.832;8.296;2022-08-03T07:00:54;5.72;;;4.18;;
13985;SDS011;7067;51.832;8.296;2022-08-03T07:03:19;7.32;;;4.60;;
13985;SDS011;7067;51.832;8.296;2022-08-03T07:05:44;8.05;;;3.75;;
13985;SDS011;7067;51.832;8.296;2022-08-03T07:08:11;4.55;;;3.78;;
13985;SDS011;7067;51.832;8.296;2022-08-03T07:10:37;5.28;;;3.90;;
13985;SDS011;7067;51.832;8.296;2022-08-03T07:13:02;5.40;;;3.90;;
13985;SDS011;7067;51.832;8.296;2022-08-03T07:15:28;5.13;;;4.07;;
13985;SDS011;7067;51.832;8.296;2022-08-03T07:17:54;3.55;;;3.25;;
13985;SDS011;7067;51.832;8.296;2022-08-03T07:20:20;5.00;;;3.80;;
13985;SDS011;7067;51.832;8.296;2022-08-03T07:22:45;3.83;;;3.38;;
13985;SDS011;7067;51.832;8.296;2022-08-03T07:25:10;7.13;;;3.42;;
13985;SDS011;7067;51.832;8.296;2022-08-03T07:27:36;3.13;;;2.72;;
13985;SDS011;7067;51.832;8.296;2022-08-03T07:30:04;3.38;;;2.63;;
13985;SDS011;7067;51.832;8.296;2022-08-03T07:32:30;7.85;;;3.17;;
13985;SDS011;7067;51.832;8.296;2022-08-03T07:34:56;3.92;;;2.45;;
13985;SDS011;7067;51.832;8.296;2022-08-03T07:37:21;7.53;;;2.80;;
13985;SDS011;7067;51.832;8.296;2022-08-03T07:39:46;3.00;;;2.50;;
13985;SDS011;7067;51.832;8.296;2022-08-03T07:42:12;5.95;;;2.75;;
13985;SDS011;7067;51.832;8.296;2022-08-03T07:44:38;3.78;;;2.65;;
13985;SDS011;7067;51.832;8.296;2022-08-03T07:47:03;7.25;;;2.75;;
13985;SDS011;7067;51.832;8.296;2022-08-03T07:49:29;2.67;;;2.25;;
13985;SDS011;7067;51.832;8.296;2022-08-03T07:51:55;3.22;;;2.78;;
13985;SDS011;7067;51.832;8.296;2022-08-03T07:54:39;4.90;;;2.40;;
13985;SDS011;7067;51.832;8.296;2022-08-03T07:57:04;3.70;;;1.85;;
13985;SDS011;7067;51.832;8.296;2022-08-03T07:59:29;4.35;;;2.25;;
13985;SDS011;7067;51.832;8.296;2022-08-03T08:01:55;2.90;;;1.77;;
13985;SDS011;7067;51.832;8.296;2022-08-03T08:04:20;8.55;;;2.33;;
13985;SDS011;7067;51.832;8.296;2022-08-03T08:06:46;3.85;;;2.00;;
13985;SDS011;7067;51.832;8.296;2022-08-03T08:09:11;3.88;;;1.60;;
13985;SDS011;7067;51.832;8.296;2022-08-03T08:11:37;2.95;;;1.65;;
13985;SDS011;7067;51.832;8.296;2022-08-03T08:14:02;4.78;;;1.67;;
13985;SDS011;7067;51.832;8.296;2022-08-03T08:16:29;4.22;;;2.22;;
13985;SDS011;7067;51.832;8.296;2022-08-03T08:18:54;5.07;;;2.20;;
13985;SDS011;7067;51.832;8.296;2022-08-03T08:21:20;3.15;;;1.60;;
13985;SDS011;7067;51.832;8.296;2022-08-03T08:23:45;2.72;;;1.65;;
13985;SDS011;7067;51.832;8.296;2022-08-03T08:26:10;3.35;;;1.40;;
13985;SDS011;7067;51.832;8.296;2022-08-03T08:28:36;3.13;;;1.58;;
13985;SDS011;7067;51.832;8.296;2022-08-03T08:31:02;2.97;;;1.60;;
13985;SDS011;7067;51.832;8.296;2022-08-03T08:33:27;3.45;;;1.40;;
13985;SDS011;7067;51.832;8.296;2022-08-03T08:35:52;4.20;;;1.42;;
13985;SDS011;7067;51.832;8.296;2022-08-03T08:38:18;4.60;;;1.90;;
13985;SDS011;7067;51.832;8.296;2022-08-03T08:40:43;3.80;;;2.08;;
13985;SDS011;7067;51.832;8.296;2022-08-03T08:43:09;2.38;;;1.83;;
13985;SDS011;7067;51.832;8.296;2022-08-03T08:45:34;4.57;;;1.10;;
13985;SDS011;7067;51.832;8.296;2022-08-03T08:48:00;5.72;;;1.70;;
13985;SDS011;7067;51.832;8.296;2022-08-03T08:50:27;1.73;;;1.58;;
13985;SDS011;7067;51.832;8.296;2022-08-03T08:52:52;3.10;;;1.20;;
13985;SDS011;7067;51.832;8.296;2022-08-03T08:55:21;4.43;;;1.40;;
13985;SDS011;7067;51.832;8.296;2022-08-03T09:00:13;2.50;;;1.30;;
13985;SDS011;7067;51.832;8.296;2022-08-03T09:02:40;5.82;;;1.75;;
13985;SDS011;7067;51.832;8.296;2022-08-03T09:05:13;3.97;;;1.50;;
13985;SDS011;7067;51.832;8.296;2022-08-03T09:07:40;3.58;;;1.50;;
13985;SDS011;7067;51.832;8.296;2022-08-03T09:10:06;3.85;;;1.42;;
13985;SDS011;7067;51.832;8.296;2022-08-03T09:12:42;6.15;;;1.92;;
13985;SDS011;7067;51.832;8.296;2022-08-03T09:15:16;1.88;;;1.10;;
13985;SDS011;7067;51.832;8.296;2022-08-03T09:17:43;3.67;;;1.83;;
13985;SDS011;7067;51.832;8.296;2022-08-03T09:20:08;3.83;;;1.48;;
13985;SDS011;7067;51.832;8.296;2022-08-03T09:22:34;1.77;;;1.30;;
13985;SDS011;7067;51.832;8.296;2022-08-03T09:25:04;2.88;;;1.55;;
13985;SDS011;7067;51.832;8.296;2022-08-03T09:27:40;5.93;;;2.13;;
13985;SDS011;7067;51.832;8.296;2022-08-03T09:30:11;4.22;;;1.65;;
13985;SDS011;7067;51.832;8.296;2022-08-03T09:32:40;2.47;;;1.55;;
13985;SDS011;7067;51.832;8.296;2022-08-03T09:35:05;5.82;;;1.58;;
13985;SDS011;7067;51.832;8.296;2022-08-03T09:37:31;2.80;;;1.58;;
13985;SDS011;7067;51.832;8.296;2022-08-03T09:39:56;3.65;;;1.30;;
13985;SDS011;7067;51.832;8.296;2022-08-03T09:42:22;1.65;;;1.33;;
13985;SDS011;7067;51.832;8.296;2022-08-03T09:44:48;2.60;;;1.48;;
13985;SDS011;7067;51.832;8.296;2022-08-03T09:47:16;2.85;;;1.30;;
13985;SDS011;7067;51.832;8.296;2022-08-03T09:49:56;2.28;;;1.83;;
13985;SDS011;7067;51.832;8.296;2022-08-03T09:52:30;1.33;;;1.10;;
13985;SDS011;7067;51.832;8.296;2022-08-03T09:54:57;4.60;;;1.75;;
13985;SDS011;7067;51.832;8.296;2022-08-03T09:57:24;5.28;;;1.98;;
13985;SDS011;7067;51.832;8.296;2022-08-03T09:59:50;1.80;;;1.58;;
13985;SDS011;7067;51.832;8.296;2022-08-03T10:02:23;4.43;;;1.67;;
13985;SDS011;7067;51.832;8.296;2022-08-03T10:04:50;1.77;;;1.42;;
13985;SDS011;7067;51.832;8.296;2022-08-03T10:07:17;5.82;;;1.63;;
13985;SDS011;7067;51.832;8.296;2022-08-03T10:09:59;1.80;;;1.70;;
13985;SDS011;7067;51.832;8.296;2022-08-03T10:12:25;4.65;;;1.60;;
13985;SDS011;7067;51.832;8.296;2022-08-03T10:14:51;3.50;;;1.38;;
13985;SDS011;7067;51.832;8.296;2022-08-03T10:17:17;2.47;;;1.25;;
13985;SDS011;7067;51.832;8.296;2022-08-03T10:19:43;4.47;;;1.63;;
13985;SDS011;7067;51.832;8.296;2022-08-03T10:22:11;2.22;;;1.42;;
13985;SDS011;7067;51.832;8.296;2022-08-03T10:24:45;1.40;;;1.25;;
13985;SDS011;7067;51.832;8.296;2022-08-03T10:27:21;3.15;;;2.00;;
13985;SDS011;7067;51.832;8.296;2022-08-03T10:29:52;3.80;;;1.55;;
13985;SDS011;7067;51.832;8.296;2022-08-03T10:32:40;1.60;;;1.20;;
13985;SDS011;7067;51.832;8.296;2022-08-03T10:35:07;5.15;;;1.60;;
13985;SDS011;7067;51.832;8.296;2022-08-03T10:37:42;2.03;;;1.23;;
13985;SDS011;7067;51.832;8.296;2022-08-03T10:40:09;1.55;;;1.25;;
13985;SDS011;7067;51.832;8.296;2022-08-03T10:42:37;3.20;;;1.60;;
13985;SDS011;7067;51.832;8.296;2022-08-03T10:45:05;4.63;;;1.50;;
13985;SDS011;7067;51.832;8.296;2022-08-03T10:47:34;3.55;;;1.52;;
13985;SDS011;7067;51.832;8.296;2022-08-03T10:50:00;3.00;;;1.52;;
13985;SDS011;7067;51.832;8.296;2022-08-03T10:52:26;4.88;;;1.20;;
13985;SDS011;7067;51.832;8.296;2022-08-03T10:54:51;2.58;;;1.42;;
13985;SDS011;7067;51.832;8.296;2022-08-03T11:00:06;3.13;;;1.65;;
13985;SDS011;7067;51.832;8.296;2022-08-03T11:05:27;3.20;;;1.20;;
13985;SDS011;7067;51.832;8.296;2022-08-03T11:10:51;3.67;;;1.42;;
13985;SDS011;7067;51.832;8.296;2022-08-03T11:13:19;4.00;;;1.40;;
13985;SDS011;7067;51.832;8.296;2022-08-03T11:15:46;4.07;;;1.27;;
13985;SDS011;7067;51.832;8.296;2022-08-03T11:18:13;3.33;;;1.20;;
13985;SDS011;7067;51.832;8.296;2022-08-03T11:20:45;3.45;;;1.48;;
13985;SDS011;7067;51.832;8.296;2022-08-03T11:23:11;1.20;;;1.10;;
13985;SDS011;7067;51.832;8.296;2022-08-03T11:28:34;2.15;;;1.10;;
13985;SDS011;7067;51.832;8.296;2022-08-03T11:39:43;2.42;;;1.60;;
13985;SDS011;7067;51.832;8.296;2022-08-03T11:44:48;3.70;;;1.40;;
13985;SDS011;7067;51.832;8.296;2022-08-03T11:47:14;1.52;;;1.40;;
13985;SDS011;7067;51.832;8.296;2022-08-03T11:49:43;2.60;;;1.08;;
13985;SDS011;7067;51.832;8.296;2022-08-03T11:52:10;3.50;;;1.30;;
13985;SDS011;7067;51.832;8.296;2022-08-03T11:54:35;3.92;;;1.40;;
13985;SDS011;7067;51.832;8.296;2022-08-03T11:57:00;1.33;;;1.20;;
13985;SDS011;7067;51.832;8.296;2022-08-03T11:59:32;5.00;;;1.80;;
13985;SDS011;7067;51.832;8.296;2022-08-03T12:02:07;5.53;;;1.45;;
13985;SDS011;7067;51.832;8.296;2022-08-03T12:04:52;2.22;;;1.90;;
13985;SDS011;7067;51.832;8.296;2022-08-03T12:07:26;3.95;;;1.58;;
13985;SDS011;7067;51.832;8.296;2022-08-03T12:10:05;2.05;;;1.67;;
13985;SDS011;7067;51.832;8.296;2022-08-03T12:12:30;2.93;;;1.60;;
13985;SDS011;7067;51.832;8.296;2022-08-03T12:14:55;6.05;;;1.35;;
13985;SDS011;7067;51.832;8.296;2022-08-03T12:17:22;3.13;;;1.40;;
13985;SDS011;7067;51.832;8.296;2022-08-03T12:19:47;1.90;;;1.63;;
13985;SDS011;7067;51.832;8.296;2022-08-03T12:22:13;1.88;;;1.20;;
13985;SDS011;7067;51.832;8.296;2022-08-03T12:24:41;2.00;;;1.35;;
13985;SDS011;7067;51.832;8.296;2022-08-03T12:27:07;2.72;;;1.33;;
13985;SDS011;7067;51.832;8.296;2022-08-03T12:29:32;4.28;;;1.42;;
13985;SDS011;7067;51.832;8.296;2022-08-03T12:31:57;5.97;;;1.70;;
13985;SDS011;7067;51.832;8.296;2022-08-03T12:34:23;9.65;;;1.88;;
13985;SDS011;7067;51.832;8.296;2022-08-03T12:36:52;2.75;;;1.45;;
13985;SDS011;7067;51.832;8.296;2022-08-03T12:39:23;2.60;;;1.40;;
13985;SDS011;7067;51.832;8.296;2022-08-03T12:41:51;2.85;;;1.75;;
13985;SDS011;7067;51.832;8.296;2022-08-03T12:44:27;3.03;;;1.83;;
13985;SDS011;7067;51.832;8.296;2022-08-03T12:46:56;5.68;;;1.67;;
13985;SDS011;7067;51.832;8.296;2022-08-03T12:49:21;2.88;;;1.60;;
13985;SDS011;7067;51.832;8.296;2022-08-03T12:54:22;1.58;;;1.30;;
13985;SDS011;7067;51.832;8.296;2022-08-03T12:59:29;1.88;;;1.52;;
13985;SDS011;7067;51.832;8.296;2022-08-03T13:01:58;2.95;;;1.83;;
13985;SDS011;7067;51.832;8.296;2022-08-03T13:04:25;6.25;;;1.48;;
13985;SDS011;7067;51.832;8.296;2022-08-03T13:07:02;3.50;;;1.85;;
13985;SDS011;7067;51.832;8.296;2022-08-03T13:09:29;3.03;;;1.80;;
13985;SDS011;7067;51.832;8.296;2022-08-03T13:12:05;4.88;;;1.60;;
13985;SDS011;7067;51.832;8.296;2022-08-03T13:14:37;2.78;;;1.98;;
13985;SDS011;7067;51.832;8.296;2022-08-03T13:17:04;1.33;;;1.20;;
13985;SDS011;7067;51.832;8.296;2022-08-03T13:19:30;2.28;;;1.55;;
13985;SDS011;7067;51.832;8.296;2022-08-03T13:22:00;3.90;;;1.80;;
13985;SDS011;7067;51.832;8.296;2022-08-03T13:24:26;3.80;;;2.13;;
13985;SDS011;7067;51.832;8.296;2022-08-03T13:26:52;5.03;;;1.48;;
13985;SDS011;7067;51.832;8.296;2022-08-03T13:29:17;1.55;;;1.38;;
13985;SDS011;7067;51.832;8.296;2022-08-03T13:31:43;4.15;;;1.33;;
13985;SDS011;7067;51.832;8.296;2022-08-03T13:34:08;1.83;;;1.65;;
13985;SDS011;7067;51.832;8.296;2022-08-03T13:36:33;5.00;;;1.67;;
13985;SDS011;7067;51.832;8.296;2022-08-03T13:38:59;2.70;;;1.55;;
13985;SDS011;7067;51.832;8.296;2022-08-03T13:41:24;1.77;;;1.30;;
13985;SDS011;7067;51.832;8.296;2022-08-03T13:43:49;3.47;;;1.52;;
13985;SDS011;7067;51.832;8.296;2022-08-03T13:46:15;2.35;;;1.55;;
13985;SDS011;7067;51.832;8.296;2022-08-03T13:48:40;1.98;;;1.35;;
13985;SDS011;7067;51.832;8.296;2022-08-03T13:51:05;3.17;;;1.58;;
13985;SDS011;7067;51.832;8.296;2022-08-03T13:53:31;4.85;;;1.65;;
13985;SDS011;7067;51.832;8.296;2022-08-03T13:55:56;6.10;;;1.60;;
13985;SDS011;7067;51.832;8.296;2022-08-03T13:58:21;2.22;;;1.42;;
13985;SDS011;7067;51.832;8.296;2022-08-03T14:00:47;2.75;;;1.80;;
13985;SDS011;7067;51.832;8.296;2022-08-03T14:03:12;1.75;;;1.33;;
13985;SDS011;7067;51.832;8.296;2022-08-03T14:05:37;1.33;;;1.20;;
13985;SDS011;7067;51.832;8.296;2022-08-03T14:08:03;5.00;;;1.50;;
13985;SDS011;7067;51.832;8.296;2022-08-03T14:10:38;2.35;;;1.05;;
13985;SDS011;7067;51.832;8.296;2022-08-03T14:13:04;4.43;;;1.77;;
13985;SDS011;7067;51.832;8.296;2022-08-03T14:15:30;2.05;;;1.25;;
13985;SDS011;7067;51.832;8.296;2022-08-03T14:17:55;2.03;;;1.27;;
13985;SDS011;7067;51.832;8.296;2022-08-03T14:20:21;3.65;;;1.35;;
13985;SDS011;7067;51.832;8.296;2022-08-03T14:22:46;1.27;;;1.17;;
13985;SDS011;7067;51.832;8.296;2022-08-03T14:25:11;2.42;;;1.23;;
13985;SDS011;7067;51.832;8.296;2022-08-03T14:27:37;2.17;;;1.08;;
13985;SDS011;7067;51.832;8.296;2022-08-03T14:30:02;1.35;;;0.85;;
13985;SDS011;7067;51.832;8.296;2022-08-03T14:32:28;2.58;;;0.90;;
13985;SDS011;7067;51.832;8.296;2022-08-03T14:34:53;4.03;;;1.10;;
13985;SDS011;7067;51.832;8.296;2022-08-03T14:37:19;3.65;;;1.25;;
13985;SDS011;7067;51.832;8.296;2022-08-03T14:39:44;4.40;;;1.40;;
13985;SDS011;7067;51.832;8.296;2022-08-03T14:42:11;2.20;;;1.02;;
13985;SDS011;7067;51.832;8.296;2022-08-03T14:44:37;2.65;;;1.10;;
13985;SDS011;7067;51.832;8.296;2022-08-03T14:47:02;2.50;;;1.40;;
13985;SDS011;7067;51.832;8.296;2022-08-03T14:49:27;1.75;;;1.20;;
13985;SDS011;7067;51.832;8.296;2022-08-03T14:51:53;6.85;;;1.30;;
13985;SDS011;7067;51.832;8.296;2022-08-03T14:54:18;4.07;;;0.98;;
13985;SDS011;7067;51.832;8.296;2022-08-03T14:56:43;1.67;;;1.10;;
13985;SDS011;7067;51.832;8.296;2022-08-03T14:59:09;2.13;;;0.93;;
13985;SDS011;7067;51.832;8.296;2022-08-03T15:01:34;1.88;;;1.30;;
13985;SDS011;7067;51.832;8.296;2022-08-03T15:03:59;3.05;;;1.27;;
13985;SDS011;7067;51.832;8.296;2022-08-03T15:06:25;4.22;;;1.58;;
13985;SDS011;7067;51.832;8.296;2022-08-03T15:08:50;2.92;;;1.05;;
13985;SDS011;7067;51.832;8.296;2022-08-03T15:11:15;2.20;;;0.90;;
13985;SDS011;7067;51.832;8.296;2022-08-03T15:13:41;3.80;;;1.60;;
13985;SDS011;7067;51.832;8.296;2022-08-03T15:16:06;1.95;;;1.17;;
13985;SDS011;7067;51.832;8.296;2022-08-03T15:18:33;3.78;;;1.45;;
13985;SDS011;7067;51.832;8.296;2022-08-03T15:20:58;3.10;;;1.13;;
13985;SDS011;7067;51.832;8.296;2022-08-03T15:23:23;2.05;;;1.05;;
13985;SDS011;7067;51.832;8.296;2022-08-03T15:25:50;2.17;;;1.52;;
13985;SDS011;7067;51.832;8.296;2022-08-03T15:28:15;3.47;;;1.33;;
13985;SDS011;7067;51.832;8.296;2022-08-03T15:30:41;2.53;;;1.20;;
13985;SDS011;7067;51.832;8.296;2022-08-03T15:33:06;2.55;;;1.27;;
13985;SDS011;7067;51.832;8.296;2022-08-03T15:35:31;4.20;;;1.10;;
13985;SDS011;7067;51.832;8.296;2022-08-03T15:37:57;3.03;;;1.27;;
13985;SDS011;7067;51.832;8.296;2022-08-03T15:40:22;5.45;;;1.30;;
13985;SDS011;7067;51.832;8.296;2022-08-03T15:42:47;1.90;;;1.52;;
13985;SDS011;7067;51.832;8.296;2022-08-03T15:45:13;4.35;;;1.20;;
13985;SDS011;7067;51.832;8.296;2022-08-03T15:47:38;2.25;;;1.10;;